Magnus Heinason — OW2252 — position and weather

sailwx.info

Track history (hours):
 
Tides and Currents Weather Stations Pressure Air Temp Water Temp Dewpoint Dewpoint Depression Visibility Wind Speed Wind Dir Waves Ship Positions

Oceanographic research ship Magnus Heinason (Faroe Islands)

Detailed information on ship capabilities available from ARCUS's ALIAS (Arctic Logistics Information and Support) project.

Last reported at 2016-Sep-01 09:11 UTC. Time now 2016-Dec-05 20:40 UTC.
Position N 62°50' W 006°02'.
Warning: this ship's position is months out of date.

Length 44 m; draft 4 m.

Type: . MMSI: 231041000.

Date/timePositionNaut miles runAvg speedWind from/ knotsBaromVisibWave heightAir tempDewpointWater temp
2016-Sep-01 09:11N 62°50' W 006°02'1 1.7
2016-Sep-01 08:33N 62°50' W 006°05'5 4.7
2016-Sep-01 07:33N 62°45' W 006°04'5 5.4
2016-Sep-01 06:33N 62°40' W 006°05'3 3.2
2016-Sep-01 05:33N 62°37' W 006°05'7 6.7
2016-Sep-01 04:33N 62°30' W 006°05'6 6.2
2016-Sep-01 03:33N 62°24' W 006°05'3 3.4
2016-Sep-01 02:33N 62°22' W 006°11'10 9.7
2016-Sep-01 01:33N 62°25' W 006°30'10 9.7
2016-Sep-01 00:33N 62°23' W 006°51'9 9.0
2016-Aug-31 23:33N 62°19' W 007°08'2 2.5
2016-Aug-31 22:33N 62°17' W 007°05'5 5.1
2016-Aug-31 21:33N 62°21' W 006°58'9 9.1
2016-Aug-31 20:33N 62°14' W 006°45'8 8.0
2016-Aug-31 19:33N 62°08' W 006°33'10 9.9
2016-Aug-31 18:34N 62°00' W 006°46'0 0.0
2016-Aug-31 17:33N 62°00' W 006°46'0 0.0
2016-Aug-31 16:33N 62°00' W 006°46'0 0.0
2016-Aug-31 15:33N 62°00' W 006°46'0 0.0
2016-Aug-31 14:33N 62°00' W 006°46'0 0.0
2016-Aug-31 13:33N 62°00' W 006°46'0 0.0
2016-Aug-31 12:33N 62°00' W 006°46'0 0.0
2016-Aug-31 11:33N 62°00' W 006°46'0 0.0
2016-Aug-31 10:33N 62°00' W 006°46'0 0.0
2016-Aug-31 09:33N 62°00' W 006°46'0 0.0
2016-Aug-31 08:33N 62°00' W 006°46'0 0.0
2016-Aug-31 07:33N 62°00' W 006°46'0 0.0
2016-Aug-31 06:33N 62°00' W 006°46'0 0.0
2016-Aug-31 05:33N 62°00' W 006°46'0 0.0
2016-Aug-31 04:33N 62°00' W 006°46'0 0.0
2016-Aug-31 03:33N 62°00' W 006°46'0 0.0
2016-Aug-31 02:33N 62°00' W 006°46'0 0.0
2016-Aug-31 01:33N 62°00' W 006°46'0 0.0
2016-Aug-31 00:33N 62°00' W 006°46'0 0.0
2016-Aug-30 23:33N 62°00' W 006°46'0 0.0
2016-Aug-30 22:33N 62°00' W 006°46'0 0.0
2016-Aug-30 21:33N 62°00' W 006°46'0 0.0
2016-Aug-30 20:33N 62°00' W 006°46'0 0.0
2016-Aug-30 19:33N 62°00' W 006°46'0 0.0
2016-Aug-30 18:33N 62°00' W 006°46'0 0.1
2016-Aug-30 17:33N 62°00' W 006°46'4 3.6
2016-Aug-30 16:33N 62°03' W 006°51'3 2.8
2016-Aug-30 15:33N 62°06' W 006°48'4 3.8
2016-Aug-30 14:33N 62°09' W 006°46'2 2.0
2016-Aug-30 13:33N 62°08' W 006°45'5 4.5
2016-Aug-30 12:33N 62°03' W 006°40'1010.3
2016-Aug-30 11:33N 62°11' W 006°26'3 2.8
2016-Aug-30 10:33N 62°14' W 006°26'3 2.8
2016-Aug-30 09:33N 62°17' W 006°28'7 7.5
2016-Aug-30 08:33N 62°09' W 006°29'1010.0
2016-Aug-30 07:34N 62°02' W 006°43'2 2.0
2016-Aug-30 06:33N 62°00' W 006°46'0 0.0
2016-Aug-30 05:33N 62°00' W 006°46'0 0.0
2016-Aug-30 04:33N 62°00' W 006°46'0 0.0
2016-Aug-30 03:33N 62°00' W 006°46'0 0.0
2016-Aug-30 02:33N 62°00' W 006°46'0 0.0
2016-Aug-30 01:33N 62°00' W 006°46'0 0.0
2016-Aug-30 00:33N 62°00' W 006°46'0 0.0
2016-Aug-29 23:33N 62°00' W 006°46'0 0.0
2016-Aug-29 22:33N 62°00' W 006°46'0 0.0
2016-Aug-29 21:33N 62°00' W 006°46'0 0.0
2016-Aug-29 20:33N 62°00' W 006°46'0 0.0
2016-Aug-29 19:33N 62°00' W 006°46'0 0.0
2016-Aug-29 18:33N 62°00' W 006°46'0 0.0
2016-Aug-29 17:33N 62°00' W 006°46'0 0.0
2016-Aug-29 16:33N 62°00' W 006°46'0 0.0
2016-Aug-29 15:33N 62°00' W 006°46'0 0.0
2016-Aug-29 14:33N 62°00' W 006°46'0 0.0
2016-Aug-29 13:33N 62°00' W 006°46'0 0.0
2016-Aug-29 12:33N 62°00' W 006°46'0 0.0
2016-Aug-29 11:33N 62°00' W 006°46'0 0.0
2016-Aug-29 10:33N 62°00' W 006°46'0 0.0
2016-Aug-29 09:33N 62°00' W 006°46'0 0.0
2016-Aug-29 08:33N 62°00' W 006°46'0 0.0
2016-Aug-29 07:33N 62°00' W 006°46'0 0.0
2016-Aug-29 06:33N 62°00' W 006°46'0 0.0
2016-Aug-29 05:33N 62°00' W 006°46'0 0.0
2016-Aug-29 04:33N 62°00' W 006°46'0 0.0
2016-Aug-29 03:33N 62°00' W 006°46'0 0.0
2016-Aug-29 02:33N 62°00' W 006°46'0 0.0
2016-Aug-29 01:33N 62°00' W 006°46'0 0.0
2016-Aug-29 00:33N 62°00' W 006°46'0 0.0
2016-Aug-28 23:33N 62°00' W 006°46'0 0.0
2016-Aug-28 22:33N 62°00' W 006°46'0 0.0
2016-Aug-28 21:33N 62°00' W 006°46'0 0.0
2016-Aug-28 20:33N 62°00' W 006°46'0 0.0
2016-Aug-28 19:33N 62°00' W 006°46'0 0.0
2016-Aug-28 18:33N 62°00' W 006°46'0 0.0
2016-Aug-28 17:33N 62°00' W 006°46'0 0.0
2016-Aug-28 16:33N 62°00' W 006°46'0 0.0
2016-Aug-28 15:33N 62°00' W 006°46'0 0.0
2016-Aug-28 14:33N 62°00' W 006°46'0 0.0
2016-Aug-28 13:33N 62°00' W 006°46'2 1.6
2016-Aug-28 12:33N 62°01' W 006°43'1010.3
2016-Aug-28 11:33N 62°01' W 006°21'4 4.5
2016-Aug-28 10:33N 62°01' W 006°12'2 2.3
2016-Aug-28 09:33N 61°59' W 006°15'5 5.2
2016-Aug-28 08:33N 61°58' W 006°26'8 8.1
2016-Aug-28 07:33N 61°59' W 006°43'2 2.2
2016-Aug-28 06:33N 62°00' W 006°46'0 0.0
2016-Aug-28 05:33N 62°00' W 006°46'0 0.0
2016-Aug-28 04:33N 62°00' W 006°46'0 0.0
2016-Aug-28 03:33N 62°00' W 006°46'0 0.0
2016-Aug-28 02:33N 62°00' W 006°46'0 0.0
2016-Aug-28 01:33N 62°00' W 006°46'0 0.0
2016-Aug-28 00:33N 62°00' W 006°46'1 1.5
2016-Aug-27 23:33N 61°59' W 006°44'6 6.1
2016-Aug-27 22:33N 61°55' W 006°53'7 6.9
2016-Aug-27 21:33N 61°51' W 007°05'3 3.3
2016-Aug-27 20:33N 61°47' W 007°05'7 6.8
2016-Aug-27 19:33N 61°42' W 006°56'9 8.7
2016-Aug-27 18:33N 61°35' W 006°44'9 9.2
2016-Aug-27 17:33N 61°28' W 006°33'5 5.2
2016-Aug-27 16:33N 61°23' W 006°30'6 5.8
2016-Aug-27 15:33N 61°17' W 006°30'1 1.0
2016-Aug-27 14:33N 61°18' W 006°31'5 4.4
2016-Aug-27 13:30N 61°17' W 006°41'5 4.9
2016-Aug-27 12:33N 61°14' W 006°48'4 3.9
2016-Aug-27 11:33N 61°10' W 006°46'5 4.7
2016-Aug-27 10:33N 61°08' W 006°55'4 3.7
2016-Aug-27 09:33N 61°05' W 006°56'3 2.8
2016-Aug-27 08:33N 61°02' W 006°53'4 3.4
2016-Aug-27 07:26N 61°04' W 006°60'3 2.9
2016-Aug-27 06:33N 61°02' W 007°01'1 0.6
2016-Aug-27 04:33N 61°03' W 007°02'7 6.8
2016-Aug-27 03:33N 61°10' W 007°03'4 3.7
2016-Aug-27 02:33N 61°13' W 007°06'4 3.7
2016-Aug-27 01:33N 61°16' W 007°11'4 3.7
2016-Aug-27 00:33N 61°20' W 007°13'8 8.3
2016-Aug-26 23:33N 61°26' W 007°24'3 3.0
2016-Aug-26 22:33N 61°28' W 007°27'5 4.8
2016-Aug-26 21:33N 61°27' W 007°37'3 3.0
2016-Aug-26 20:33N 61°29' W 007°32'7 6.9
2016-Aug-26 19:34N 61°33' W 007°44'2 1.8
2016-Aug-26 18:33N 61°32' W 007°46'4 4.4
2016-Aug-26 17:33N 61°28' W 007°51'3 2.9
2016-Aug-26 16:33N 61°28' W 007°57'4 4.1
2016-Aug-26 15:33N 61°31' W 008°01'3 2.9
2016-Aug-26 14:33N 61°34' W 008°01'3 3.5
2016-Aug-26 13:33N 61°37' W 007°56'5 5.2
2016-Aug-26 12:33N 61°42' W 007°51'3 3.0
2016-Aug-26 11:33N 61°42' W 007°44'1 1.0
2016-Aug-26 10:33N 61°43' W 007°42'7 7.2
2016-Aug-26 09:33N 61°50' W 007°42'4 3.5
2016-Aug-26 08:33N 61°50' W 007°50'9 8.7
2016-Aug-26 07:34N 61°54' W 008°06'5 5.2
2016-Aug-26 06:33N 61°58' W 008°14'4 1.9
2016-Aug-26 04:33N 62°01' W 008°11'3 3.3
2016-Aug-26 03:33N 61°58' W 008°07'5 5.4
2016-Aug-26 02:33N 61°54' W 008°00'4 3.6
2016-Aug-26 01:33N 61°54' W 007°52'3 3.3
2016-Aug-26 00:33N 61°54' W 007°46'4 3.9
2016-Aug-25 23:33N 61°55' W 007°38'4 3.7
2016-Aug-25 22:33N 61°56' W 007°30'7 6.5
2016-Aug-25 21:33N 62°01' W 007°39'4 3.6
2016-Aug-25 20:33N 62°00' W 007°31'6 6.4
2016-Aug-25 19:33N 62°05' W 007°22'5 5.1
2016-Aug-25 18:33N 62°05' W 007°33'1010.1
2016-Aug-25 17:33N 62°02' W 007°54'1 1.0
2016-Aug-25 16:33N 62°01' W 007°54'3 2.9
2016-Aug-25 15:33N 62°04' W 007°57'6 5.5
2016-Aug-25 14:33N 62°08' W 008°06'4 4.0
2016-Aug-25 13:33N 62°12' W 008°06'3 2.5
2016-Aug-25 12:33N 62°14' W 008°03'6 5.6
2016-Aug-25 11:33N 62°11' W 008°13'5 5.1
2016-Aug-25 10:33N 62°08' W 008°22'3 3.3
2016-Aug-25 09:33N 62°11' W 008°22'3 3.3
2016-Aug-25 08:33N 62°14' W 008°21'4 3.9
2016-Aug-25 07:33N 62°17' W 008°15'5 4.9
2016-Aug-25 06:33N 62°21' W 008°10'9 4.5
2016-Aug-25 04:33N 62°19' W 007°52'3 3.3
2016-Aug-25 03:33N 62°16' W 007°52'1 0.9
2016-Aug-25 02:34N 62°15' W 007°52'6 5.9
2016-Aug-25 01:33N 62°12' W 007°41'3 2.6
2016-Aug-25 00:33N 62°14' W 007°42'3 3.2
2016-Aug-24 23:33N 62°15' W 007°35'4 3.9
2016-Aug-24 22:33N 62°14' W 007°26'5 4.5
2016-Aug-24 21:33N 62°13' W 007°17'1 0.6
2016-Aug-24 20:33N 62°13' W 007°18'4 4.2
2016-Aug-24 19:33N 62°17' W 007°20'7 6.8
2016-Aug-24 18:33N 62°23' W 007°26'3 3.5
2016-Aug-24 17:33N 62°20' W 007°30'5 4.8
2016-Aug-24 16:33N 62°17' W 007°38'3 3.0
2016-Aug-24 15:33N 62°20' W 007°40'4 3.6
2016-Aug-24 14:33N 62°21' W 007°48'5 5.3
2016-Aug-24 13:33N 62°26' W 007°52'3 2.6
2016-Aug-24 12:33N 62°26' W 007°58'8 8.2
2016-Aug-24 11:33N 62°32' W 008°09'3 2.8
2016-Aug-24 10:33N 62°31' W 008°14'3 3.4
2016-Aug-24 09:33N 62°28' W 008°19'6 6.1
2016-Aug-24 08:33N 62°23' W 008°26'4 4.0
2016-Aug-24 07:33N 62°20' W 008°32'4 3.7
2016-Aug-24 06:33N 62°17' W 008°37'12 6.1
2016-Aug-24 04:33N 62°25' W 008°58'3 2.6
2016-Aug-24 03:33N 62°27' W 008°54'2 2.1
2016-Aug-24 02:33N 62°25' W 008°55'3 3.5
2016-Aug-24 01:33N 62°23' W 009°01'2 2.4
2016-Aug-24 00:33N 62°25' W 009°00'2 2.1
2016-Aug-23 23:33N 62°23' W 009°01'2 1.7
2016-Aug-23 22:33N 62°22' W 008°58'2 2.2
2016-Aug-23 21:33N 62°23' W 008°55'4 3.9
2016-Aug-23 20:33N 62°20' W 008°59'3 2.8
2016-Aug-23 19:33N 62°17' W 008°59'3 2.9
2016-Aug-23 18:33N 62°15' W 009°02'3 3.3
2016-Aug-23 17:33N 62°11' W 009°03'6 6.0
2016-Aug-23 16:33N 62°12' W 008°51'4 4.0
2016-Aug-23 15:33N 62°13' W 008°42'4 3.8
2016-Aug-23 14:33N 62°10' W 008°43'8 7.9
2016-Aug-23 13:33N 62°02' W 008°41'3 2.6
2016-Aug-23 12:33N 62°04' W 008°43'2 2.4
2016-Aug-23 11:33N 62°03' W 008°38'6 5.7
2016-Aug-23 10:33N 61°58' W 008°40'1 0.9
2016-Aug-23 09:33N 61°58' W 008°41'1 1.0
2016-Aug-23 08:33N 61°59' W 008°39'4 4.1
2016-Aug-23 07:33N 61°55' W 008°38'6 6.3
2016-Aug-23 06:33N 61°49' W 008°32'3 3.5
2016-Aug-23 05:33N 61°46' W 008°28'3 2.8
2016-Aug-23 04:33N 61°49' W 008°29'7 6.8
2016-Aug-23 03:33N 61°51' W 008°16'3 2.7
2016-Aug-23 02:33N 61°51' W 008°10'4 3.9
2016-Aug-23 01:33N 61°48' W 008°07'3 3.3
2016-Aug-23 00:33N 61°44' W 008°05'7 6.6
2016-Aug-22 23:33N 61°41' W 008°17'3 3.3
2016-Aug-22 22:33N 61°40' W 008°10'4 3.9
2016-Aug-22 21:33N 61°39' W 008°17'4 3.5
2016-Aug-22 20:34N 61°35' W 008°16'9 9.4
2016-Aug-22 19:34N 61°40' W 007°59'3 3.5
2016-Aug-22 18:33N 61°42' W 007°53'6 6.1
2016-Aug-22 17:33N 61°45' W 007°41'1010.3
2016-Aug-22 16:33N 61°50' W 007°22'1010.4
2016-Aug-22 15:33N 61°54' W 007°02'10 9.9
2016-Aug-22 14:34N 61°59' W 006°43'2 2.3
2016-Aug-22 13:34N 62°00' W 006°46'0 0.0
2016-Aug-22 12:33N 62°00' W 006°46'0 0.0
2016-Aug-22 11:33N 62°00' W 006°46'0 0.0
2016-Aug-22 10:33N 62°00' W 006°46'0 0.0
2016-Aug-22 09:33N 62°00' W 006°46'  
Track history (hours):
 
Tides and Currents Weather Stations Pressure Air Temp Water Temp Dewpoint Dewpoint Depression Visibility Wind Speed Wind Dir Waves Ship Positions

Oceanographic research ship Magnus Heinason (Faroe Islands)

Detailed information on ship capabilities available from ARCUS's ALIAS (Arctic Logistics Information and Support) project.

Last reported at 2016-Sep-01 09:11 UTC. Time now 2016-Dec-05 20:40 UTC.
Position N 62°50' W 006°02'.
Warning: this ship's position is months out of date.

Length 44 m; draft 4 m.

Type: . MMSI: 231041000.

Date/timePositionNaut miles runAvg speedWind from/ knotsBaromVisibWave heightAir tempDewpointWater temp
2016-Sep-01 09:11N 62°50' W 006°02'1 1.7
2016-Sep-01 08:33N 62°50' W 006°05'5 4.7
2016-Sep-01 07:33N 62°45' W 006°04'5 5.4
2016-Sep-01 06:33N 62°40' W 006°05'3 3.2
2016-Sep-01 05:33N 62°37' W 006°05'7 6.7
2016-Sep-01 04:33N 62°30' W 006°05'6 6.2
2016-Sep-01 03:33N 62°24' W 006°05'3 3.4
2016-Sep-01 02:33N 62°22' W 006°11'10 9.7
2016-Sep-01 01:33N 62°25' W 006°30'10 9.7
2016-Sep-01 00:33N 62°23' W 006°51'9 9.0
2016-Aug-31 23:33N 62°19' W 007°08'2 2.5
2016-Aug-31 22:33N 62°17' W 007°05'5 5.1
2016-Aug-31 21:33N 62°21' W 006°58'9 9.1
2016-Aug-31 20:33N 62°14' W 006°45'8 8.0
2016-Aug-31 19:33N 62°08' W 006°33'10 9.9
2016-Aug-31 18:34N 62°00' W 006°46'0 0.0
2016-Aug-31 17:33N 62°00' W 006°46'0 0.0
2016-Aug-31 16:33N 62°00' W 006°46'0 0.0
2016-Aug-31 15:33N 62°00' W 006°46'0 0.0
2016-Aug-31 14:33N 62°00' W 006°46'0 0.0
2016-Aug-31 13:33N 62°00' W 006°46'0 0.0
2016-Aug-31 12:33N 62°00' W 006°46'0 0.0
2016-Aug-31 11:33N 62°00' W 006°46'0 0.0
2016-Aug-31 10:33N 62°00' W 006°46'0 0.0
2016-Aug-31 09:33N 62°00' W 006°46'0 0.0
2016-Aug-31 08:33N 62°00' W 006°46'0 0.0
2016-Aug-31 07:33N 62°00' W 006°46'0 0.0
2016-Aug-31 06:33N 62°00' W 006°46'0 0.0
2016-Aug-31 05:33N 62°00' W 006°46'0 0.0
2016-Aug-31 04:33N 62°00' W 006°46'0 0.0
2016-Aug-31 03:33N 62°00' W 006°46'0 0.0
2016-Aug-31 02:33N 62°00' W 006°46'0 0.0
2016-Aug-31 01:33N 62°00' W 006°46'0 0.0
2016-Aug-31 00:33N 62°00' W 006°46'0 0.0
2016-Aug-30 23:33N 62°00' W 006°46'0 0.0
2016-Aug-30 22:33N 62°00' W 006°46'0 0.0
2016-Aug-30 21:33N 62°00' W 006°46'0 0.0
2016-Aug-30 20:33N 62°00' W 006°46'0 0.0
2016-Aug-30 19:33N 62°00' W 006°46'0 0.0
2016-Aug-30 18:33N 62°00' W 006°46'0 0.1
2016-Aug-30 17:33N 62°00' W 006°46'4 3.6
2016-Aug-30 16:33N 62°03' W 006°51'3 2.8
2016-Aug-30 15:33N 62°06' W 006°48'4 3.8
2016-Aug-30 14:33N 62°09' W 006°46'2 2.0
2016-Aug-30 13:33N 62°08' W 006°45'5 4.5
2016-Aug-30 12:33N 62°03' W 006°40'1010.3
2016-Aug-30 11:33N 62°11' W 006°26'3 2.8
2016-Aug-30 10:33N 62°14' W 006°26'3 2.8
2016-Aug-30 09:33N 62°17' W 006°28'7 7.5
2016-Aug-30 08:33N 62°09' W 006°29'1010.0
2016-Aug-30 07:34N 62°02' W 006°43'2 2.0
2016-Aug-30 06:33N 62°00' W 006°46'0 0.0
2016-Aug-30 05:33N 62°00' W 006°46'0 0.0
2016-Aug-30 04:33N 62°00' W 006°46'0 0.0
2016-Aug-30 03:33N 62°00' W 006°46'0 0.0
2016-Aug-30 02:33N 62°00' W 006°46'0 0.0
2016-Aug-30 01:33N 62°00' W 006°46'0 0.0
2016-Aug-30 00:33N 62°00' W 006°46'0 0.0
2016-Aug-29 23:33N 62°00' W 006°46'0 0.0
2016-Aug-29 22:33N 62°00' W 006°46'0 0.0
2016-Aug-29 21:33N 62°00' W 006°46'0 0.0
2016-Aug-29 20:33N 62°00' W 006°46'0 0.0
2016-Aug-29 19:33N 62°00' W 006°46'0 0.0
2016-Aug-29 18:33N 62°00' W 006°46'0 0.0
2016-Aug-29 17:33N 62°00' W 006°46'0 0.0
2016-Aug-29 16:33N 62°00' W 006°46'0 0.0
2016-Aug-29 15:33N 62°00' W 006°46'0 0.0
2016-Aug-29 14:33N 62°00' W 006°46'0 0.0
2016-Aug-29 13:33N 62°00' W 006°46'0 0.0
2016-Aug-29 12:33N 62°00' W 006°46'0 0.0
2016-Aug-29 11:33N 62°00' W 006°46'0 0.0
2016-Aug-29 10:33N 62°00' W 006°46'0 0.0
2016-Aug-29 09:33N 62°00' W 006°46'0 0.0
2016-Aug-29 08:33N 62°00' W 006°46'0 0.0
2016-Aug-29 07:33N 62°00' W 006°46'0 0.0
2016-Aug-29 06:33N 62°00' W 006°46'0 0.0
2016-Aug-29 05:33N 62°00' W 006°46'0 0.0
2016-Aug-29 04:33N 62°00' W 006°46'0 0.0
2016-Aug-29 03:33N 62°00' W 006°46'0 0.0
2016-Aug-29 02:33N 62°00' W 006°46'0 0.0
2016-Aug-29 01:33N 62°00' W 006°46'0 0.0
2016-Aug-29 00:33N 62°00' W 006°46'0 0.0
2016-Aug-28 23:33N 62°00' W 006°46'0 0.0
2016-Aug-28 22:33N 62°00' W 006°46'0 0.0
2016-Aug-28 21:33N 62°00' W 006°46'0 0.0
2016-Aug-28 20:33N 62°00' W 006°46'0 0.0
2016-Aug-28 19:33N 62°00' W 006°46'0 0.0
2016-Aug-28 18:33N 62°00' W 006°46'0 0.0
2016-Aug-28 17:33N 62°00' W 006°46'0 0.0
2016-Aug-28 16:33N 62°00' W 006°46'0 0.0
2016-Aug-28 15:33N 62°00' W 006°46'0 0.0
2016-Aug-28 14:33N 62°00' W 006°46'0 0.0
2016-Aug-28 13:33N 62°00' W 006°46'2 1.6
2016-Aug-28 12:33N 62°01' W 006°43'1010.3
2016-Aug-28 11:33N 62°01' W 006°21'4 4.5
2016-Aug-28 10:33N 62°01' W 006°12'2 2.3
2016-Aug-28 09:33N 61°59' W 006°15'5 5.2
2016-Aug-28 08:33N 61°58' W 006°26'8 8.1
2016-Aug-28 07:33N 61°59' W 006°43'2 2.2
2016-Aug-28 06:33N 62°00' W 006°46'0 0.0
2016-Aug-28 05:33N 62°00' W 006°46'0 0.0
2016-Aug-28 04:33N 62°00' W 006°46'0 0.0
2016-Aug-28 03:33N 62°00' W 006°46'0 0.0
2016-Aug-28 02:33N 62°00' W 006°46'0 0.0
2016-Aug-28 01:33N 62°00' W 006°46'0 0.0
2016-Aug-28 00:33N 62°00' W 006°46'1 1.5
2016-Aug-27 23:33N 61°59' W 006°44'6 6.1
2016-Aug-27 22:33N 61°55' W 006°53'7 6.9
2016-Aug-27 21:33N 61°51' W 007°05'3 3.3
2016-Aug-27 20:33N 61°47' W 007°05'7 6.8
2016-Aug-27 19:33N 61°42' W 006°56'9 8.7
2016-Aug-27 18:33N 61°35' W 006°44'9 9.2
2016-Aug-27 17:33N 61°28' W 006°33'5 5.2
2016-Aug-27 16:33N 61°23' W 006°30'6 5.8
2016-Aug-27 15:33N 61°17' W 006°30'1 1.0
2016-Aug-27 14:33N 61°18' W 006°31'5 4.4
2016-Aug-27 13:30N 61°17' W 006°41'5 4.9
2016-Aug-27 12:33N 61°14' W 006°48'4 3.9
2016-Aug-27 11:33N 61°10' W 006°46'5 4.7
2016-Aug-27 10:33N 61°08' W 006°55'4 3.7
2016-Aug-27 09:33N 61°05' W 006°56'3 2.8
2016-Aug-27 08:33N 61°02' W 006°53'4 3.4
2016-Aug-27 07:26N 61°04' W 006°60'3 2.9
2016-Aug-27 06:33N 61°02' W 007°01'1 0.6
2016-Aug-27 04:33N 61°03' W 007°02'7 6.8
2016-Aug-27 03:33N 61°10' W 007°03'4 3.7
2016-Aug-27 02:33N 61°13' W 007°06'4 3.7
2016-Aug-27 01:33N 61°16' W 007°11'4 3.7
2016-Aug-27 00:33N 61°20' W 007°13'8 8.3
2016-Aug-26 23:33N 61°26' W 007°24'3 3.0
2016-Aug-26 22:33N 61°28' W 007°27'5 4.8
2016-Aug-26 21:33N 61°27' W 007°37'3 3.0
2016-Aug-26 20:33N 61°29' W 007°32'7 6.9
2016-Aug-26 19:34N 61°33' W 007°44'2 1.8
2016-Aug-26 18:33N 61°32' W 007°46'4 4.4
2016-Aug-26 17:33N 61°28' W 007°51'3 2.9
2016-Aug-26 16:33N 61°28' W 007°57'4 4.1
2016-Aug-26 15:33N 61°31' W 008°01'3 2.9
2016-Aug-26 14:33N 61°34' W 008°01'3 3.5
2016-Aug-26 13:33N 61°37' W 007°56'5 5.2
2016-Aug-26 12:33N 61°42' W 007°51'3 3.0
2016-Aug-26 11:33N 61°42' W 007°44'1 1.0
2016-Aug-26 10:33N 61°43' W 007°42'7 7.2
2016-Aug-26 09:33N 61°50' W 007°42'4 3.5
2016-Aug-26 08:33N 61°50' W 007°50'9 8.7
2016-Aug-26 07:34N 61°54' W 008°06'5 5.2
2016-Aug-26 06:33N 61°58' W 008°14'4 1.9
2016-Aug-26 04:33N 62°01' W 008°11'3 3.3
2016-Aug-26 03:33N 61°58' W 008°07'5 5.4
2016-Aug-26 02:33N 61°54' W 008°00'4 3.6
2016-Aug-26 01:33N 61°54' W 007°52'3 3.3
2016-Aug-26 00:33N 61°54' W 007°46'4 3.9
2016-Aug-25 23:33N 61°55' W 007°38'4 3.7
2016-Aug-25 22:33N 61°56' W 007°30'7 6.5
2016-Aug-25 21:33N 62°01' W 007°39'4 3.6
2016-Aug-25 20:33N 62°00' W 007°31'6 6.4
2016-Aug-25 19:33N 62°05' W 007°22'5 5.1
2016-Aug-25 18:33N 62°05' W 007°33'1010.1
2016-Aug-25 17:33N 62°02' W 007°54'1 1.0
2016-Aug-25 16:33N 62°01' W 007°54'3 2.9
2016-Aug-25 15:33N 62°04' W 007°57'6 5.5
2016-Aug-25 14:33N 62°08' W 008°06'4 4.0
2016-Aug-25 13:33N 62°12' W 008°06'3 2.5
2016-Aug-25 12:33N 62°14' W 008°03'6 5.6
2016-Aug-25 11:33N 62°11' W 008°13'5 5.1
2016-Aug-25 10:33N 62°08' W 008°22'3 3.3
2016-Aug-25 09:33N 62°11' W 008°22'3 3.3
2016-Aug-25 08:33N 62°14' W 008°21'4 3.9
2016-Aug-25 07:33N 62°17' W 008°15'5 4.9
2016-Aug-25 06:33N 62°21' W 008°10'9 4.5
2016-Aug-25 04:33N 62°19' W 007°52'3 3.3
2016-Aug-25 03:33N 62°16' W 007°52'1 0.9
2016-Aug-25 02:34N 62°15' W 007°52'6 5.9
2016-Aug-25 01:33N 62°12' W 007°41'3 2.6
2016-Aug-25 00:33N 62°14' W 007°42'3 3.2
2016-Aug-24 23:33N 62°15' W 007°35'4 3.9
2016-Aug-24 22:33N 62°14' W 007°26'5 4.5
2016-Aug-24 21:33N 62°13' W 007°17'1 0.6
2016-Aug-24 20:33N 62°13' W 007°18'4 4.2
2016-Aug-24 19:33N 62°17' W 007°20'7 6.8
2016-Aug-24 18:33N 62°23' W 007°26'3 3.5
2016-Aug-24 17:33N 62°20' W 007°30'5 4.8
2016-Aug-24 16:33N 62°17' W 007°38'3 3.0
2016-Aug-24 15:33N 62°20' W 007°40'4 3.6
2016-Aug-24 14:33N 62°21' W 007°48'5 5.3
2016-Aug-24 13:33N 62°26' W 007°52'3 2.6
2016-Aug-24 12:33N 62°26' W 007°58'8 8.2
2016-Aug-24 11:33N 62°32' W 008°09'3 2.8
2016-Aug-24 10:33N 62°31' W 008°14'3 3.4
2016-Aug-24 09:33N 62°28' W 008°19'6 6.1
2016-Aug-24 08:33N 62°23' W 008°26'4 4.0
2016-Aug-24 07:33N 62°20' W 008°32'4 3.7
2016-Aug-24 06:33N 62°17' W 008°37'12 6.1
2016-Aug-24 04:33N 62°25' W 008°58'3 2.6
2016-Aug-24 03:33N 62°27' W 008°54'2 2.1
2016-Aug-24 02:33N 62°25' W 008°55'3 3.5
2016-Aug-24 01:33N 62°23' W 009°01'2 2.4
2016-Aug-24 00:33N 62°25' W 009°00'2 2.1
2016-Aug-23 23:33N 62°23' W 009°01'2 1.7
2016-Aug-23 22:33N 62°22' W 008°58'2 2.2
2016-Aug-23 21:33N 62°23' W 008°55'4 3.9
2016-Aug-23 20:33N 62°20' W 008°59'3 2.8
2016-Aug-23 19:33N 62°17' W 008°59'3 2.9
2016-Aug-23 18:33N 62°15' W 009°02'3 3.3
2016-Aug-23 17:33N 62°11' W 009°03'6 6.0
2016-Aug-23 16:33N 62°12' W 008°51'4 4.0
2016-Aug-23 15:33N 62°13' W 008°42'4 3.8
2016-Aug-23 14:33N 62°10' W 008°43'8 7.9
2016-Aug-23 13:33N 62°02' W 008°41'3 2.6
2016-Aug-23 12:33N 62°04' W 008°43'2 2.4
2016-Aug-23 11:33N 62°03' W 008°38'6 5.7
2016-Aug-23 10:33N 61°58' W 008°40'1 0.9
2016-Aug-23 09:33N 61°58' W 008°41'1 1.0
2016-Aug-23 08:33N 61°59' W 008°39'4 4.1
2016-Aug-23 07:33N 61°55' W 008°38'6 6.3
2016-Aug-23 06:33N 61°49' W 008°32'3 3.5
2016-Aug-23 05:33N 61°46' W 008°28'3 2.8
2016-Aug-23 04:33N 61°49' W 008°29'7 6.8
2016-Aug-23 03:33N 61°51' W 008°16'3 2.7
2016-Aug-23 02:33N 61°51' W 008°10'4 3.9
2016-Aug-23 01:33N 61°48' W 008°07'3 3.3
2016-Aug-23 00:33N 61°44' W 008°05'7 6.6
2016-Aug-22 23:33N 61°41' W 008°17'3 3.3
2016-Aug-22 22:33N 61°40' W 008°10'4 3.9
2016-Aug-22 21:33N 61°39' W 008°17'4 3.5
2016-Aug-22 20:34N 61°35' W 008°16'9 9.4
2016-Aug-22 19:34N 61°40' W 007°59'3 3.5
2016-Aug-22 18:33N 61°42' W 007°53'6 6.1
2016-Aug-22 17:33N 61°45' W 007°41'1010.3
2016-Aug-22 16:33N 61°50' W 007°22'1010.4
2016-Aug-22 15:33N 61°54' W 007°02'10 9.9
2016-Aug-22 14:34N 61°59' W 006°43'2 2.3
2016-Aug-22 13:34N 62°00' W 006°46'0 0.0
2016-Aug-22 12:33N 62°00' W 006°46'0 0.0
2016-Aug-22 11:33N 62°00' W 006°46'0 0.0
2016-Aug-22 10:33N 62°00' W 006°46'0 0.0
2016-Aug-22 09:33N 62°00' W 006°46'  

Dump ship's entire track history